Casper-Natrona County International Airport Casper US
ICAO: KCPR
IATA: CPR
Category: Large
Scheduled Services: Yes

Elevation: 5350 ft
TransAlt. 18000 ft.

Airport Communications:
CASPER APP/DEP:119
VFR ADVSY SVC:118.3
ATIS:126.15
CTAF:118.3
CASPER GND/CLNC DEL:121.9
CASPER RDO:122.2
CASPER TWR:118.3
UNICOM:122.95

KCPR Zoom In..

If you have problems with the map follow the link
https://www.worldairports.se/pages/airport.php?
ICAO=KCPR

Runways:

(A) RW 03 length 10165 ft width 150 ft
ILS 111.30 / hdg 32

(B) RW 08 length 8679 ft width 150 ft
ILS 110.30 / hdg 77

(C) RW 21 length 10165 ft width 150 ft
---- / hdg 212

(D) RW 26 length 8679 ft width 150 ft
---- / hdg 257

Location; KCPR
Day. 24 / Time. 10.53 Zulu
* Altimeter: 30.03
* Temperature: -01° c. -30.2°f.
* Wind from: 250° Speed 07 kn.
Dewpoint: -02° c.
Visibility: 10 Statute Miles.
Clouds: Few 6000 ft.

KCPR 241053Z AUTO 25007KT 10SM FEW060 M01/M02 A3003 RMK AO2 SLP163 T10111022


Wind From 250°
Speed 07 kn.

 
 
jpsmedia.com for Web Design worldairports.se 2019   terms of use